createdAt,value
2019-03-30T03:07:21.695Z,21.8
2019-03-30T03:08:11.799Z,21.9
2019-03-30T03:09:02.159Z,21.8
2019-03-30T03:09:51.549Z,21.8
2019-03-30T03:10:42.202Z,21.8
2019-03-30T03:11:31.692Z,21.9
2019-03-30T03:12:21.995Z,21.9
2019-03-30T03:13:11.801Z,21.9
2019-03-30T03:14:02.544Z,21.8
2019-03-30T03:14:51.929Z,21.9
2019-03-30T03:15:42.121Z,21.8
2019-03-30T03:16:34.526Z,21.9
2019-03-30T03:17:22.683Z,21.9
2019-03-30T03:18:12.902Z,21.8
2019-03-30T03:19:02.777Z,21.8
2019-03-30T03:19:51.969Z,21.8
2019-03-30T03:20:42.483Z,21.8
2019-03-30T03:21:32.101Z,21.8
2019-03-30T03:22:22.427Z,21.8
2019-03-30T03:23:12.778Z,21.8
2019-03-30T03:24:02.893Z,21.8
2019-03-30T03:24:52.657Z,21.8
2019-03-30T03:25:42.490Z,21.8
2019-03-30T03:26:32.628Z,21.8
2019-03-30T03:27:22.864Z,21.8
2019-03-30T03:28:13.401Z,21.8
2019-03-30T03:29:03.158Z,21.8
2019-03-30T03:29:53.358Z,21.8
2019-03-30T03:30:43.684Z,21.8
2019-03-30T03:31:33.849Z,21.8
2019-03-30T03:32:23.355Z,21.8
2019-03-30T03:33:13.962Z,21.8
2019-03-30T03:34:04.373Z,21.8
2019-03-30T03:34:54.039Z,21.8
2019-03-30T03:35:43.929Z,21.8
2019-03-30T03:36:33.455Z,21.8
2019-03-30T03:37:23.205Z,21.8
2019-03-30T03:38:13.602Z,21.8
2019-03-30T03:39:03.999Z,21.8
2019-03-30T03:39:53.758Z,21.8
2019-03-30T03:40:44.381Z,21.8
2019-03-30T03:41:34.497Z,21.8
2019-03-30T03:42:24.281Z,21.8
2019-03-30T03:43:13.949Z,21.8
2019-03-30T03:44:03.987Z,21.8
2019-03-30T03:44:53.821Z,21.8
2019-03-30T03:45:44.789Z,21.8
2019-03-30T03:46:33.581Z,21.8
2019-03-30T03:47:24.193Z,21.8
2019-03-30T03:48:14.534Z,21.8
2019-03-30T03:49:03.277Z,21.8
2019-03-30T03:49:54.992Z,21.8
2019-03-30T03:50:44.893Z,21.8
2019-03-30T03:51:35.102Z,21.8
2019-03-30T03:52:24.619Z,21.8
2019-03-30T03:53:14.617Z,21.8
2019-03-30T03:54:04.779Z,21.8
2019-03-30T03:54:55.084Z,21.8
2019-03-30T03:55:44.858Z,21.8
2019-03-30T03:56:35.526Z,21.8
2019-03-30T03:57:25.604Z,21.8
2019-03-30T03:58:15.627Z,21.8
2019-03-30T03:59:05.143Z,21.8
2019-03-30T03:59:54.937Z,21.8
2019-03-30T04:00:45.187Z,21.8
2019-03-30T04:01:35.800Z,21.8
2019-03-30T04:02:25.086Z,21.8
2019-03-30T04:03:15.980Z,21.8
2019-03-30T04:04:05.516Z,21.8
2019-03-30T04:04:55.792Z,21.8
2019-03-30T04:05:46.201Z,21.8
2019-03-30T04:06:36.151Z,21.8
2019-03-30T04:07:26.099Z,21.8
2019-03-30T04:08:16.083Z,21.8
2019-03-30T04:09:06.107Z,21.8
2019-03-30T04:09:55.426Z,21.8
2019-03-30T04:10:46.206Z,21.8
2019-03-30T04:11:35.814Z,21.8
2019-03-30T04:12:26.417Z,21.8
2019-03-30T04:13:15.809Z,21.8
2019-03-30T04:14:06.754Z,21.8
2019-03-30T04:14:56.225Z,21.8
2019-03-30T04:15:46.840Z,21.8
2019-03-30T04:16:36.589Z,21.8
2019-03-30T04:17:26.388Z,21.8
2019-03-30T04:18:16.608Z,21.8
2019-03-30T04:19:07.150Z,21.8
2019-03-30T04:19:57.299Z,21.8
2019-03-30T04:20:46.680Z,21.8
2019-03-30T04:21:50.666Z,21.8
2019-03-30T04:22:26.631Z,21.8
2019-03-30T04:23:16.314Z,21.8
2019-03-30T04:24:07.249Z,21.8
2019-03-30T04:24:56.508Z,21.8
2019-03-30T04:25:46.914Z,21.8
2019-03-30T04:26:36.663Z,21.8
2019-03-30T04:27:27.465Z,21.8
2019-03-30T04:28:17.859Z,21.8
2019-03-30T04:29:07.503Z,21.8
2019-03-30T04:29:57.901Z,21.8
2019-03-30T04:30:47.173Z,21.8
2019-03-30T04:31:38.008Z,21.8
2019-03-30T04:32:27.600Z,21.8
2019-03-30T04:33:17.979Z,21.8
2019-03-30T04:34:07.545Z,21.8
2019-03-30T04:34:57.177Z,21.8
2019-03-30T04:35:47.472Z,21.8
2019-03-30T04:36:37.184Z,21.8
2019-03-30T04:37:27.506Z,21.8
2019-03-30T04:38:21.090Z,21.8
2019-03-30T04:39:07.958Z,21.8
2019-03-30T04:39:57.956Z,21.8
2019-03-30T04:40:48.061Z,21.8
2019-03-30T04:41:38.325Z,21.8
2019-03-30T04:42:28.382Z,21.8
2019-03-30T04:43:18.535Z,21.8
2019-03-30T04:44:08.347Z,21.8
2019-03-30T04:44:58.921Z,21.8
2019-03-30T04:45:49.075Z,21.8
2019-03-30T04:46:38.739Z,21.8
2019-03-30T04:47:28.857Z,21.8
2019-03-30T04:48:19.237Z,21.8
2019-03-30T04:49:08.947Z,21.8
2019-03-30T04:49:58.716Z,21.8
2019-03-30T04:50:48.741Z,21.8
2019-03-30T04:51:38.494Z,21.8
2019-03-30T04:52:29.355Z,21.8
2019-03-30T04:53:18.876Z,21.8
2019-03-30T04:54:09.237Z,21.8
2019-03-30T04:54:59.551Z,21.8
2019-03-30T04:55:49.373Z,21.8
2019-03-30T04:56:39.757Z,21.8
2019-03-30T04:57:29.811Z,21.8
2019-03-30T04:58:19.018Z,21.8
2019-03-30T04:59:09.366Z,21.8
2019-03-30T04:59:59.933Z,21.8
2019-03-30T05:00:49.734Z,21.8
2019-03-30T05:01:40.210Z,21.8
2019-03-30T05:02:29.540Z,21.8
2019-03-30T05:03:19.888Z,21.8
2019-03-30T05:04:09.753Z,21.8
2019-03-30T05:05:00.364Z,21.8
2019-03-30T05:05:50.083Z,21.8
2019-03-30T05:06:40.420Z,21.8
2019-03-30T05:07:30.181Z,21.8
2019-03-30T05:08:20.238Z,21.8
2019-03-30T05:09:10.590Z,21.8
2019-03-30T05:10:00.861Z,21.8
2019-03-30T05:10:49.952Z,21.8
2019-03-30T05:11:40.775Z,21.8
2019-03-30T05:12:30.822Z,21.8
2019-03-30T05:13:20.620Z,21.8
2019-03-30T05:14:11.008Z,21.8
2019-03-30T05:15:00.980Z,21.8
2019-03-30T05:15:50.219Z,21.8
2019-03-30T05:16:40.902Z,21.8
2019-03-30T05:17:50.620Z,21.8
2019-03-30T05:18:20.415Z,21.8
2019-03-30T05:19:10.705Z,21.8
2019-03-30T05:20:01.347Z,21.8
2019-03-30T05:20:51.389Z,21.8
2019-03-30T05:21:41.182Z,21.8
2019-03-30T05:22:31.332Z,21.8
2019-03-30T05:23:21.102Z,21.8
2019-03-30T05:24:11.401Z,21.8
2019-03-30T05:25:01.812Z,21.8
2019-03-30T05:25:51.227Z,21.8
2019-03-30T05:26:41.816Z,21.8
2019-03-30T05:27:31.924Z,21.8
2019-03-30T05:28:21.784Z,21.8
2019-03-30T05:29:11.494Z,21.8
2019-03-30T05:30:02.378Z,21.8
2019-03-30T05:30:51.624Z,21.8
2019-03-30T05:31:41.690Z,21.8
2019-03-30T05:32:32.209Z,21.8
2019-03-30T05:33:22.292Z,21.8
2019-03-30T05:34:12.092Z,21.8
2019-03-30T05:35:02.219Z,21.8
2019-03-30T05:35:52.475Z,21.8
2019-03-30T05:36:41.772Z,21.8
2019-03-30T05:37:32.651Z,21.8
2019-03-30T05:38:22.771Z,21.8
2019-03-30T05:39:12.439Z,21.8
2019-03-30T05:40:02.781Z,21.8
2019-03-30T05:40:52.629Z,21.8
2019-03-30T05:41:42.652Z,21.8
2019-03-30T05:42:32.958Z,21.8
2019-03-30T05:43:22.788Z,21.8
2019-03-30T05:44:12.551Z,21.8
2019-03-30T05:45:04.298Z,21.8
2019-03-30T05:45:52.368Z,21.8
2019-03-30T05:46:42.403Z,21.8
2019-03-30T05:47:33.026Z,21.8
2019-03-30T05:48:23.425Z,21.8
2019-03-30T05:49:12.888Z,21.8
2019-03-30T05:50:03.728Z,21.8
2019-03-30T05:50:53.255Z,21.8
2019-03-30T05:51:43.071Z,21.8
2019-03-30T05:52:36.691Z,21.8
2019-03-30T05:53:22.973Z,21.8
2019-03-30T05:54:13.773Z,21.8
2019-03-30T05:55:03.877Z,21.8
2019-03-30T05:55:53.646Z,21.8
2019-03-30T05:56:43.676Z,21.8
2019-03-30T05:57:33.006Z,21.8
2019-03-30T05:58:23.909Z,21.8
2019-03-30T05:59:13.883Z,21.8
2019-03-30T06:00:03.620Z,21.8
2019-03-30T06:00:54.062Z,21.8
2019-03-30T06:01:43.305Z,21.8
2019-03-30T06:02:34.113Z,21.8
2019-03-30T06:05:21.722Z,21.8
2019-03-30T06:06:11.500Z,21.8
2019-03-30T06:07:01.689Z,21.8
2019-03-30T06:07:51.807Z,21.8
2019-03-30T06:08:42.029Z,21.8
2019-03-30T06:09:31.203Z,21.8
2019-03-30T06:10:22.084Z,21.8
2019-03-30T06:11:11.305Z,21.8
2019-03-30T06:12:02.206Z,21.8
2019-03-30T06:12:51.722Z,21.8
2019-03-30T06:13:42.061Z,21.8
2019-03-30T06:14:32.202Z,21.8
2019-03-30T06:15:21.961Z,21.9
2019-03-30T06:16:12.499Z,21.8
2019-03-30T06:17:02.290Z,21.8
2019-03-30T06:17:52.056Z,21.8
2019-03-30T06:18:42.129Z,21.8
2019-03-30T06:19:32.529Z,21.8
2019-03-30T06:20:21.679Z,21.8
2019-03-30T06:21:12.586Z,21.8
2019-03-30T06:22:02.684Z,21.9
2019-03-30T06:22:52.425Z,21.9
2019-03-30T06:23:42.848Z,21.9
2019-03-30T06:24:31.979Z,21.8
2019-03-30T06:25:23.088Z,21.8
2019-03-30T06:26:13.332Z,21.9
2019-03-30T06:27:02.723Z,21.9
2019-03-30T06:27:52.764Z,21.9
2019-03-30T06:28:43.120Z,21.9
2019-03-30T06:29:32.613Z,21.9
2019-03-30T06:30:23.346Z,21.9
2019-03-30T06:31:13.290Z,21.9
2019-03-30T06:32:03.409Z,21.9
2019-03-30T06:32:53.681Z,21.9
2019-03-30T06:33:43.748Z,21.9
2019-03-30T06:34:33.858Z,21.9
2019-03-30T06:35:23.979Z,21.9
2019-03-30T06:36:13.992Z,21.9
2019-03-30T06:37:03.456Z,21.9
2019-03-30T06:37:53.778Z,21.9
2019-03-30T06:38:44.103Z,21.9
2019-03-30T06:39:37.474Z,21.9
2019-03-30T06:40:24.236Z,21.9
2019-03-30T06:41:14.424Z,21.9
2019-03-30T06:42:04.068Z,21.9
2019-03-30T06:42:54.160Z,21.9
2019-03-30T06:43:43.713Z,21.9
2019-03-30T06:44:32.862Z,21.9
2019-03-30T06:45:24.369Z,21.9
2019-03-30T06:46:14.355Z,21.9
2019-03-30T06:47:04.724Z,21.9
2019-03-30T06:47:54.791Z,21.9
2019-03-30T06:48:44.840Z,21.9
2019-03-30T06:49:34.893Z,21.9
2019-03-30T06:50:24.922Z,21.9
2019-03-30T06:51:14.995Z,21.9
2019-03-30T06:52:04.772Z,21.9
2019-03-30T06:53:05.279Z,21.9
2019-03-30T06:53:45.168Z,21.9
2019-03-30T06:54:35.247Z,21.9
2019-03-30T06:55:25.048Z,21.9
2019-03-30T06:56:15.134Z,21.9
2019-03-30T06:57:05.412Z,21.9
2019-03-30T06:57:55.192Z,21.9
2019-03-30T06:58:45.284Z,21.9
2019-03-30T06:59:35.601Z,21.9
2019-03-30T07:00:25.692Z,21.9
2019-03-30T07:01:14.689Z,21.9
2019-03-30T07:02:05.859Z,21.9
2019-03-30T07:02:55.854Z,21.9
2019-03-30T07:05:21.159Z,21.9
2019-03-30T07:06:11.517Z,21.9
2019-03-30T07:07:01.567Z,21.9
2019-03-30T07:07:51.899Z,21.9
2019-03-30T07:08:41.478Z,21.9
2019-03-30T07:09:31.966Z,21.9
2019-03-30T07:10:22.068Z,21.9
2019-03-30T07:11:27.402Z,21.9
2019-03-30T07:12:02.263Z,21.9
2019-03-30T07:12:51.921Z,21.9
2019-03-30T07:13:42.083Z,21.9
2019-03-30T07:14:32.326Z,21.9
2019-03-30T07:15:22.142Z,21.9
2019-03-30T07:16:12.289Z,21.9
2019-03-30T07:17:06.113Z,21.9
2019-03-30T07:17:52.566Z,21.9
2019-03-30T07:18:42.070Z,21.9
2019-03-30T07:19:32.125Z,21.9
2019-03-30T07:20:22.724Z,21.9
2019-03-30T07:21:12.806Z,21.9
2019-03-30T07:22:02.679Z,21.9
2019-03-30T07:22:55.870Z,21.9
2019-03-30T07:23:42.186Z,21.9
2019-03-30T07:24:33.023Z,21.9
2019-03-30T07:25:22.535Z,21.9
2019-03-30T07:26:13.167Z,21.9
2019-03-30T07:27:02.935Z,21.9
2019-03-30T07:27:53.303Z,21.9
2019-03-30T07:28:42.023Z,21.9
2019-03-30T07:29:33.417Z,21.9
2019-03-30T07:30:23.195Z,21.9
2019-03-30T07:31:13.223Z,21.9
2019-03-30T07:32:03.826Z,21.9
2019-03-30T07:32:53.602Z,21.9
2019-03-30T07:33:43.680Z,21.9
2019-03-30T07:34:33.762Z,21.9
2019-03-30T07:35:23.293Z,21.9
2019-03-30T07:36:13.307Z,21.9
2019-03-30T07:37:03.403Z,21.9
2019-03-30T07:37:53.684Z,21.9
2019-03-30T07:38:44.045Z,21.9
2019-03-30T07:39:34.152Z,21.9
2019-03-30T07:40:23.626Z,21.9
2019-03-30T07:41:13.469Z,21.9
2019-03-30T07:42:03.799Z,21.9
2019-03-30T07:42:53.874Z,21.9
2019-03-30T07:43:44.219Z,21.9
2019-03-30T07:44:33.389Z,21.9
2019-03-30T07:45:24.543Z,21.9
2019-03-30T07:46:14.331Z,21.9
2019-03-30T07:47:04.679Z,21.9
2019-03-30T07:47:54.173Z,21.9
2019-03-30T07:48:44.511Z,21.9
2019-03-30T07:49:34.844Z,21.9
2019-03-30T07:50:24.611Z,21.9
2019-03-30T07:51:14.926Z,21.9
2019-03-30T07:52:04.890Z,21.9
2019-03-30T07:52:54.826Z,21.9
2019-03-30T07:53:51.505Z,21.9
2019-03-30T07:54:34.943Z,21.9
2019-03-30T07:55:25.060Z,21.9
2019-03-30T07:56:15.853Z,21.9
2019-03-30T07:57:23.381Z,21.9
2019-03-30T07:57:56.050Z,21.9
2019-03-30T07:58:44.987Z,21.9
2019-03-30T07:59:35.671Z,21.9
2019-03-30T08:00:32.666Z,21.9
2019-03-30T08:01:15.231Z,21.9
2019-03-30T08:02:05.480Z,21.9
2019-03-30T08:03:10.453Z,21.9
2019-03-30T08:03:45.883Z,21.9
2019-03-30T08:04:36.023Z,21.9
2019-03-30T08:05:25.766Z,21.9
2019-03-30T08:06:15.824Z,21.9
2019-03-30T08:07:06.133Z,21.9
2019-03-30T08:07:55.638Z,21.9
2019-03-30T08:08:45.945Z,21.9
2019-03-30T08:09:39.584Z,21.9
2019-03-30T08:10:26.313Z,21.9
2019-03-30T08:11:19.404Z,21.9
2019-03-30T08:12:06.198Z,21.9
2019-03-30T08:12:56.304Z,21.9
2019-03-30T08:13:46.353Z,21.9
2019-03-30T08:14:35.797Z,21.9
2019-03-30T08:15:26.457Z,21.9
2019-03-30T08:16:16.315Z,21.9
2019-03-30T08:17:06.804Z,21.9
2019-03-30T08:17:56.931Z,21.9
2019-03-30T08:18:46.935Z,21.9
2019-03-30T08:19:35.983Z,21.9
2019-03-30T08:20:27.324Z,21.9
2019-03-30T08:21:16.840Z,21.9
2019-03-30T08:22:06.357Z,21.9
2019-03-30T08:22:57.258Z,21.9
2019-03-30T08:23:47.735Z,21.9
2019-03-30T08:24:37.099Z,22
2019-03-30T08:25:27.177Z,21.9
2019-03-30T08:26:17.474Z,22
2019-03-30T08:27:07.665Z,21.9
2019-03-30T08:27:57.666Z,21.9
2019-03-30T08:28:47.724Z,21.9
2019-03-30T08:29:37.732Z,21.9
2019-03-30T08:30:27.284Z,21.9
2019-03-30T08:31:17.607Z,21.9
2019-03-30T08:32:07.639Z,21.9
2019-03-30T08:32:57.494Z,21.9
2019-03-30T08:33:47.546Z,21.9
2019-03-30T08:34:38.085Z,21.9
2019-03-30T08:35:28.196Z,22
2019-03-30T08:36:18.203Z,21.9
2019-03-30T08:37:07.948Z,21.9
2019-03-30T08:37:58.021Z,22
2019-03-30T08:38:48.156Z,21.9
2019-03-30T08:39:37.893Z,22
2019-03-30T08:40:28.306Z,22
2019-03-30T08:41:18.934Z,21.9
2019-03-30T08:42:08.616Z,22
2019-03-30T08:42:58.737Z,22
2019-03-30T08:43:48.729Z,22
2019-03-30T08:44:38.382Z,22
2019-03-30T08:45:28.645Z,22
2019-03-30T08:46:18.737Z,22
2019-03-30T08:47:07.931Z,22
2019-03-30T08:47:58.765Z,21.9
2019-03-30T08:48:47.988Z,22
2019-03-30T08:49:38.848Z,22
2019-03-30T08:50:28.111Z,22
2019-03-30T08:51:22.718Z,21.9
2019-03-30T08:52:08.761Z,22
2019-03-30T08:52:59.148Z,21.9
2019-03-30T08:54:01.498Z,22
2019-03-30T08:54:39.509Z,21.9
2019-03-30T08:55:29.562Z,22
2019-03-30T08:56:19.372Z,22
2019-03-30T08:57:08.603Z,22
2019-03-30T08:57:59.485Z,22
2019-03-30T08:58:48.810Z,22
2019-03-30T08:59:39.861Z,22
2019-03-30T09:00:28.861Z,22
2019-03-30T09:01:33.820Z,22
2019-03-30T09:02:09.511Z,22
2019-03-30T09:03:00.206Z,22
2019-03-30T09:03:49.945Z,22
2019-03-30T09:04:39.954Z,22
2019-03-30T09:05:30.004Z,22
2019-03-30T09:06:20.342Z,22
2019-03-30T09:07:10.153Z,21.9
2019-03-30T09:07:59.458Z,21.9
2019-03-30T09:08:50.517Z,21.9
2019-03-30T09:09:39.566Z,21.9
2019-03-30T09:10:29.627Z,21.9
2019-03-30T09:11:20.424Z,21.8
2019-03-30T09:12:10.342Z,21.8
2019-03-30T09:13:00.339Z,21.8
2019-03-30T09:13:50.429Z,21.8
2019-03-30T09:14:40.947Z,21.8
2019-03-30T09:15:31.094Z,21.8
2019-03-30T09:16:20.890Z,21.8
2019-03-30T09:17:10.854Z,21.8
2019-03-30T09:18:01.204Z,21.8
2019-03-30T09:18:50.970Z,21.8
2019-03-30T09:19:40.567Z,21.8
2019-03-30T09:20:30.651Z,21.8
2019-03-30T09:21:20.500Z,21.8
2019-03-30T09:22:11.106Z,21.8
2019-03-30T09:23:01.616Z,21.8
2019-03-30T09:23:50.840Z,21.8
2019-03-30T09:24:40.892Z,21.8
2019-03-30T09:25:31.729Z,21.8
2019-03-30T09:26:23.086Z,21.8
2019-03-30T09:27:11.279Z,21.8
2019-03-30T09:28:01.426Z,21.8
2019-03-30T09:28:51.493Z,21.8
2019-03-30T09:29:41.583Z,21.8
2019-03-30T09:30:31.850Z,21.8
2019-03-30T09:31:21.738Z,21.8
2019-03-30T09:32:20.998Z,21.8
2019-03-30T09:33:01.925Z,21.8
2019-03-30T09:33:51.070Z,21.8
2019-03-30T09:34:41.876Z,21.8
2019-03-30T09:35:31.796Z,21.8
2019-03-30T09:36:22.008Z,21.9
2019-03-30T09:37:11.318Z,21.8
2019-03-30T09:38:01.898Z,21.8
2019-03-30T09:38:51.782Z,21.8
2019-03-30T09:39:41.873Z,21.8
2019-03-30T09:40:31.017Z,21.8
2019-03-30T09:41:21.888Z,21.8
2019-03-30T09:42:11.958Z,21.9
2019-03-30T09:43:01.260Z,21.9
2019-03-30T09:43:52.580Z,21.9
2019-03-30T09:44:42.582Z,21.9
2019-03-30T09:45:32.505Z,21.9
2019-03-30T09:46:22.175Z,21.9
2019-03-30T09:47:12.270Z,21.9
2019-03-30T09:48:02.863Z,21.9
2019-03-30T09:48:52.143Z,21.9
2019-03-30T09:49:42.441Z,21.9
2019-03-30T09:50:32.779Z,21.9
2019-03-30T09:51:23.102Z,21.9
2019-03-30T09:52:11.836Z,21.9
2019-03-30T09:53:03.047Z,21.9
2019-03-30T09:53:52.724Z,21.9
2019-03-30T09:54:43.099Z,21.9
2019-03-30T09:55:33.937Z,21.9
2019-03-30T09:56:22.667Z,21.9
2019-03-30T09:57:13.640Z,21.9
2019-03-30T09:58:03.592Z,21.9
2019-03-30T09:58:52.889Z,21.9
2019-03-30T09:59:43.434Z,21.9
2019-03-30T10:00:33.845Z,21.9
2019-03-30T10:01:23.877Z,21.9
2019-03-30T10:02:13.878Z,21.9
2019-03-30T10:03:07.044Z,21.9
2019-03-30T10:03:53.536Z,21.9
2019-03-30T10:06:30.385Z,21.9
2019-03-30T10:07:10.954Z,21.9
2019-03-30T10:08:01.178Z,21.9
2019-03-30T10:08:51.224Z,21.9
2019-03-30T10:09:40.259Z,21.9
2019-03-30T10:10:30.330Z,21.9
2019-03-30T10:11:21.114Z,21.9
2019-03-30T10:12:10.621Z,21.9
2019-03-30T10:13:01.542Z,22
2019-03-30T10:13:51.604Z,22
2019-03-30T10:14:41.081Z,22
2019-03-30T10:15:31.429Z,22
2019-03-30T10:16:21.963Z,22
2019-03-30T10:17:12.023Z,22
2019-03-30T10:18:01.893Z,22
2019-03-30T10:18:51.661Z,22
2019-03-30T10:19:41.443Z,22
2019-03-30T10:20:32.525Z,22
2019-03-30T10:21:22.120Z,22
2019-03-30T10:22:11.965Z,22
2019-03-30T10:23:02.078Z,22.1
2019-03-30T10:23:52.303Z,22.1
2019-03-30T10:24:44.884Z,22
2019-03-30T10:25:32.378Z,22.1
2019-03-30T10:26:22.941Z,22
2019-03-30T10:27:12.625Z,22
2019-03-30T10:28:02.800Z,22
2019-03-30T10:28:53.255Z,22
2019-03-30T10:29:42.738Z,22
2019-03-30T10:30:32.994Z,22
2019-03-30T10:31:22.557Z,22
2019-03-30T10:32:13.182Z,22
2019-03-30T10:33:02.743Z,22
2019-03-30T10:33:52.970Z,22
2019-03-30T10:34:46.285Z,22
2019-03-30T10:35:33.157Z,22
2019-03-30T10:36:23.120Z,22
2019-03-30T10:37:13.798Z,22
2019-03-30T10:38:03.333Z,21.9
2019-03-30T10:38:53.306Z,22
2019-03-30T10:39:43.083Z,21.9
2019-03-30T10:40:34.035Z,22
2019-03-30T10:41:23.770Z,21.9
2019-03-30T10:42:13.311Z,22
2019-03-30T10:43:04.190Z,21.9
2019-03-30T10:43:53.960Z,22
2019-03-30T10:44:43.764Z,22
2019-03-30T10:45:33.539Z,22
2019-03-30T10:46:23.819Z,22
2019-03-30T10:47:14.491Z,22
2019-03-30T10:48:04.241Z,22
2019-03-30T10:48:54.380Z,22
2019-03-30T10:49:44.377Z,22
2019-03-30T10:50:34.168Z,22
2019-03-30T10:51:25.159Z,22
2019-03-30T10:52:14.604Z,22
2019-03-30T10:53:04.946Z,22
2019-03-30T10:53:54.986Z,22
2019-03-30T10:54:59.591Z,22
2019-03-30T10:55:34.806Z,22
2019-03-30T10:56:24.658Z,22
2019-03-30T10:57:14.661Z,22
2019-03-30T10:58:07.210Z,22
2019-03-30T10:58:55.021Z,22
2019-03-30T10:59:45.434Z,22
2019-03-30T11:00:34.891Z,22
2019-03-30T11:01:25.181Z,22
2019-03-30T11:02:15.363Z,22
2019-03-30T11:03:05.588Z,22
2019-03-30T11:03:55.708Z,22
2019-03-30T11:04:44.968Z,22
2019-03-30T11:05:35.296Z,22
2019-03-30T11:06:25.636Z,22
2019-03-30T11:07:15.233Z,22
2019-03-30T11:08:05.978Z,22
2019-03-30T11:08:55.758Z,22
2019-03-30T11:09:45.520Z,22
2019-03-30T11:10:35.900Z,22
2019-03-30T11:11:26.407Z,22
2019-03-30T11:12:16.283Z,22
2019-03-30T11:13:06.100Z,22
2019-03-30T11:13:56.099Z,22
2019-03-30T11:14:46.551Z,22
2019-03-30T11:15:39.850Z,22
2019-03-30T11:16:26.292Z,22
2019-03-30T11:17:19.852Z,22
2019-03-30T11:18:06.430Z,22
2019-03-30T11:18:56.750Z,22
2019-03-30T11:19:46.250Z,22
2019-03-30T11:20:36.322Z,22
2019-03-30T11:21:26.916Z,22
2019-03-30T11:22:16.797Z,22
2019-03-30T11:23:07.174Z,22.1
2019-03-30T11:23:56.262Z,22.1
2019-03-30T11:24:46.904Z,22.1
2019-03-30T11:25:36.972Z,22.1
2019-03-30T11:26:27.282Z,22.1
2019-03-30T11:27:17.079Z,22.1
2019-03-30T11:28:07.514Z,22.1
2019-03-30T11:28:57.007Z,22.1
2019-03-30T11:29:46.303Z,22.1
2019-03-30T11:30:37.168Z,22.1
2019-03-30T11:31:27.756Z,22.1
2019-03-30T11:32:17.741Z,22.1
2019-03-30T11:33:07.082Z,22.1
2019-03-30T11:33:57.608Z,22.1
2019-03-30T11:34:47.409Z,22.1
2019-03-30T11:35:38.009Z,22.1
2019-03-30T11:36:28.004Z,22.1
2019-03-30T11:37:18.079Z,22.1
2019-03-30T11:38:08.178Z,22.1
2019-03-30T11:38:57.903Z,22.1
2019-03-30T11:39:48.323Z,22.1
2019-03-30T11:40:38.291Z,22.1
2019-03-30T11:41:31.386Z,22.1
2019-03-30T11:42:18.551Z,22.1
2019-03-30T11:43:08.516Z,22.1
2019-03-30T11:43:58.575Z,22.1
2019-03-30T11:44:48.847Z,22.1
2019-03-30T11:45:38.678Z,22.1
2019-03-30T11:46:28.476Z,22.1
2019-03-30T11:47:18.875Z,22.1
2019-03-30T11:48:08.363Z,22.1
2019-03-30T11:48:57.699Z,22.1
2019-03-30T11:49:48.835Z,22.1
2019-03-30T11:50:38.575Z,22.1
2019-03-30T11:51:29.148Z,22.1
2019-03-30T11:52:18.853Z,22.1
2019-03-30T11:53:09.318Z,22.1
2019-03-30T11:53:58.975Z,22.1
2019-03-30T11:54:49.085Z,22.1
2019-03-30T11:55:38.919Z,22.1
2019-03-30T11:56:28.987Z,22.1
2019-03-30T11:57:19.082Z,22.1
2019-03-30T11:58:09.105Z,22.1
2019-03-30T11:58:59.157Z,22.1
2019-03-30T11:59:48.936Z,22.1
2019-03-30T12:00:38.750Z,22.1
2019-03-30T12:01:29.137Z,22.1
2019-03-30T12:02:33.780Z,22.1
2019-03-30T12:03:09.454Z,22.1
2019-03-30T12:03:58.674Z,22.1
2019-03-30T12:06:20.844Z,22.1
2019-03-30T12:07:11.244Z,22.1
2019-03-30T12:08:01.098Z,22.2
2019-03-30T12:08:52.127Z,22.2
2019-03-30T12:10:11.019Z,22.2
2019-03-30T12:10:45.558Z,22.2
2019-03-30T12:11:21.591Z,22.2
2019-03-30T12:12:11.600Z,22.2
2019-03-30T12:13:16.864Z,22.2
2019-03-30T12:13:52.197Z,22.2
2019-03-30T12:14:42.131Z,22.2
2019-03-30T12:15:33.022Z,22.2
2019-03-30T12:16:36.446Z,22.2
2019-03-30T12:17:12.442Z,22.2
2019-03-30T12:18:02.976Z,22.2
2019-03-30T12:19:07.941Z,22.2
2019-03-30T12:19:42.391Z,22.3
2019-03-30T12:20:32.453Z,22.2
2019-03-30T12:21:21.961Z,22.2
2019-03-30T12:22:11.991Z,22.2
2019-03-30T12:23:02.686Z,22.2
2019-03-30T12:23:52.163Z,22.2
2019-03-30T12:24:41.923Z,22.3
2019-03-30T12:25:42.625Z,22.2
2019-03-30T12:26:22.585Z,22.3
2019-03-30T12:27:12.688Z,22.2
2019-03-30T12:28:01.888Z,22.3
2019-03-30T12:28:52.801Z,22.3
2019-03-30T12:29:46.766Z,22.2
2019-03-30T12:30:32.549Z,22.3
2019-03-30T12:31:22.953Z,22.3
2019-03-30T12:32:13.298Z,22.3
2019-03-30T12:33:03.091Z,22.3
2019-03-30T12:33:52.895Z,22.3
2019-03-30T12:34:43.550Z,22.3
2019-03-30T12:35:32.806Z,22.3
2019-03-30T12:36:23.637Z,22.3
2019-03-30T12:37:13.627Z,22.3
2019-03-30T12:38:03.745Z,22.3
2019-03-30T12:38:53.778Z,22.3
2019-03-30T12:39:43.576Z,22.3
2019-03-30T12:40:33.632Z,22.3
2019-03-30T12:41:23.701Z,22.3
2019-03-30T12:42:14.087Z,22.3
2019-03-30T12:43:03.869Z,22.3
2019-03-30T12:43:53.735Z,22.3
2019-03-30T12:44:43.387Z,22.3
2019-03-30T12:45:33.488Z,22.3
2019-03-30T12:46:24.115Z,22.3
2019-03-30T12:47:16.920Z,22.3
2019-03-30T12:48:08.152Z,22.3
2019-03-30T12:49:08.743Z,22.3
2019-03-30T12:49:47.158Z,22.3
2019-03-30T12:50:34.640Z,22.3
2019-03-30T14:07:20.384Z,22.7
2019-03-30T14:08:10.920Z,22.7
2019-03-30T14:09:00.780Z,22.7
2019-03-30T14:09:50.796Z,22.7
2019-03-30T14:10:44.751Z,22.7
2019-03-30T14:11:30.892Z,22.7
2019-03-30T14:12:21.198Z,22.8
2019-03-30T14:13:11.003Z,22.8
2019-03-30T14:14:01.054Z,22.8
2019-03-30T14:14:50.863Z,22.8
2019-03-30T14:15:41.185Z,22.8
2019-03-30T14:16:31.040Z,22.8
2019-03-30T14:17:24.706Z,22.8
2019-03-30T14:18:11.191Z,22.8
2019-03-30T14:19:01.461Z,22.8
2019-03-30T14:19:50.501Z,22.8
2019-03-30T14:20:41.562Z,22.8
2019-03-30T14:21:31.885Z,22.8
2019-03-30T14:22:21.396Z,22.8
2019-03-30T14:23:11.802Z,22.8
2019-03-30T14:24:01.820Z,22.8
2019-03-30T14:24:51.859Z,22.8
2019-03-30T14:25:42.182Z,22.8
2019-03-30T14:26:37.869Z,22.8
2019-03-30T14:27:21.751Z,22.8
2019-03-30T14:28:12.141Z,22.8
2019-03-30T14:29:02.163Z,22.8
2019-03-30T14:29:55.972Z,22.8
2019-03-30T14:30:42.295Z,22.8
2019-03-30T14:31:32.612Z,22.8
2019-03-30T14:32:22.676Z,22.8
2019-03-30T14:33:12.470Z,22.8
2019-03-30T14:34:02.263Z,22.9
2019-03-30T14:34:52.874Z,22.9
2019-03-30T14:35:46.196Z,22.9
2019-03-30T14:36:32.436Z,22.9
2019-03-30T14:37:22.203Z,22.9
2019-03-30T14:38:12.823Z,22.9
2019-03-30T14:39:03.233Z,22.9
2019-03-30T14:39:52.683Z,22.9
2019-03-30T14:40:43.026Z,22.9
2019-03-30T14:41:33.086Z,22.9
2019-03-30T14:42:23.145Z,22.9
2019-03-30T14:43:12.912Z,22.9
2019-03-30T14:44:03.262Z,22.9
2019-03-30T14:44:53.314Z,22.9
2019-03-30T14:45:43.687Z,22.9
2019-03-30T14:46:33.765Z,22.9
2019-03-30T14:47:23.499Z,22.9
2019-03-30T14:48:13.852Z,22.9
2019-03-30T14:49:03.615Z,22.9
2019-03-30T14:49:53.997Z,22.9
2019-03-30T14:50:43.734Z,22.9
2019-03-30T14:51:33.807Z,22.9
2019-03-30T14:52:24.204Z,23
2019-03-30T14:53:15.132Z,22.9
2019-03-30T14:54:04.362Z,22.9
2019-03-30T14:54:59.517Z,22.9
2019-03-30T14:55:46.490Z,22.9
2019-03-30T14:56:49.739Z,23
2019-03-30T14:57:24.747Z,23
2019-03-30T14:58:15.162Z,23
2019-03-30T14:59:19.672Z,23
2019-03-30T14:59:55.176Z,23
2019-03-30T15:00:46.424Z,23
2019-03-30T15:01:35.851Z,23
2019-03-30T15:02:25.062Z,23
2019-03-30T15:03:15.581Z,23
2019-03-30T15:04:05.506Z,23
2019-03-30T15:04:55.276Z,23.1
2019-03-30T15:05:45.111Z,23
2019-03-30T15:06:35.469Z,23.1
2019-03-30T15:07:24.656Z,23.1
2019-03-30T15:08:15.229Z,23.1
2019-03-30T15:09:05.566Z,23.1
2019-03-30T15:09:55.716Z,23.1
2019-03-30T15:10:45.415Z,23.1
2019-03-30T15:11:39.482Z,23.1
2019-03-30T15:12:26.095Z,23.1
2019-03-30T15:13:15.498Z,23.1
2019-03-30T15:14:05.473Z,23.1
2019-03-30T15:14:55.798Z,23.1
2019-03-30T15:15:45.411Z,23.1
2019-03-30T15:16:35.699Z,23.1
2019-03-30T15:17:25.993Z,23.1
2019-03-30T15:18:15.762Z,23.1
2019-03-30T15:19:05.656Z,23.1
2019-03-30T15:19:55.926Z,23.1
2019-03-30T15:20:46.309Z,23.1
2019-03-30T15:21:36.023Z,23.1
2019-03-30T15:22:26.358Z,23.1
2019-03-30T15:23:16.328Z,23.1
2019-03-30T15:24:07.080Z,23.1
2019-03-30T15:24:56.445Z,23.1
2019-03-30T15:25:46.795Z,23.1
2019-03-30T15:26:37.170Z,23.1
2019-03-30T15:27:27.165Z,23.1
2019-03-30T15:28:16.847Z,23.1
2019-03-30T15:29:06.497Z,23.1
2019-03-30T15:29:57.385Z,23.1
2019-03-30T15:30:47.150Z,23.1
2019-03-30T15:31:36.943Z,23.1
2019-03-30T15:32:27.553Z,23.1
2019-03-30T15:33:17.387Z,23.1
2019-03-30T15:34:07.707Z,23.1
2019-03-30T15:35:01.348Z,23.1
2019-03-30T15:35:47.802Z,23.1
2019-03-30T15:36:37.369Z,23.1
2019-03-30T15:37:27.123Z,23.1
2019-03-30T15:38:17.708Z,23.1
2019-03-30T15:39:08.034Z,23.1
2019-03-30T15:39:58.094Z,23.1
2019-03-30T15:40:47.642Z,23.1
2019-03-30T15:41:37.745Z,23.1
2019-03-30T15:42:28.074Z,23.1